sensor_id;sensor_type;location;lat;lon;timestamp;temperature;humidity
7411;DHT22;3747;48.628;9.058;2023-05-21T00:00:49;13.60;99.90
7411;DHT22;3747;48.628;9.058;2023-05-21T00:03:18;13.60;99.90
7411;DHT22;3747;48.628;9.058;2023-05-21T00:05:45;13.60;99.90
7411;DHT22;3747;48.628;9.058;2023-05-21T00:08:14;13.50;99.90
7411;DHT22;3747;48.628;9.058;2023-05-21T00:10:41;13.60;99.90
7411;DHT22;3747;48.628;9.058;2023-05-21T00:13:09;13.50;99.90
7411;DHT22;3747;48.628;9.058;2023-05-21T00:15:35;13.40;99.90
7411;DHT22;3747;48.628;9.058;2023-05-21T00:18:02;13.40;99.90
7411;DHT22;3747;48.628;9.058;2023-05-21T00:20:29;13.50;99.90
7411;DHT22;3747;48.628;9.058;2023-05-21T00:22:56;13.50;99.90
7411;DHT22;3747;48.628;9.058;2023-05-21T00:25:23;13.50;99.90
7411;DHT22;3747;48.628;9.058;2023-05-21T00:27:49;13.50;99.90
7411;DHT22;3747;48.628;9.058;2023-05-21T00:30:17;13.50;99.90
7411;DHT22;3747;48.628;9.058;2023-05-21T00:32:44;13.40;99.90
7411;DHT22;3747;48.628;9.058;2023-05-21T00:35:11;13.40;99.90
7411;DHT22;3747;48.628;9.058;2023-05-21T00:37:38;13.40;99.90
7411;DHT22;3747;48.628;9.058;2023-05-21T00:40:06;13.40;99.90
7411;DHT22;3747;48.628;9.058;2023-05-21T00:42:34;13.40;99.90
7411;DHT22;3747;48.628;9.058;2023-05-21T00:45:06;13.30;99.90
7411;DHT22;3747;48.628;9.058;2023-05-21T00:47:35;13.30;99.90
7411;DHT22;3747;48.628;9.058;2023-05-21T00:50:03;13.30;99.90
7411;DHT22;3747;48.628;9.058;2023-05-21T00:52:30;13.30;99.90
7411;DHT22;3747;48.628;9.058;2023-05-21T00:54:57;13.40;99.90
7411;DHT22;3747;48.628;9.058;2023-05-21T00:57:25;13.40;99.90
7411;DHT22;3747;48.628;9.058;2023-05-21T00:59:52;13.40;99.90
7411;DHT22;3747;48.628;9.058;2023-05-21T01:02:19;13.30;99.90
7411;DHT22;3747;48.628;9.058;2023-05-21T01:04:53;13.30;99.90
7411;DHT22;3747;48.628;9.058;2023-05-21T01:07:20;13.30;99.90
7411;DHT22;3747;48.628;9.058;2023-05-21T01:09:47;13.20;99.90
7411;DHT22;3747;48.628;9.058;2023-05-21T01:12:14;13.10;99.90
7411;DHT22;3747;48.628;9.058;2023-05-21T01:14:41;13.00;99.90
7411;DHT22;3747;48.628;9.058;2023-05-21T01:17:08;13.00;99.90
7411;DHT22;3747;48.628;9.058;2023-05-21T01:19:35;12.90;99.90
7411;DHT22;3747;48.628;9.058;2023-05-21T01:22:05;12.80;99.90
7411;DHT22;3747;48.628;9.058;2023-05-21T01:24:33;12.70;99.90
7411;DHT22;3747;48.628;9.058;2023-05-21T01:27:02;12.70;99.90
7411;DHT22;3747;48.628;9.058;2023-05-21T01:29:30;12.60;99.90
7411;DHT22;3747;48.628;9.058;2023-05-21T01:32:03;12.60;99.90
7411;DHT22;3747;48.628;9.058;2023-05-21T01:34:36;12.60;99.90
7411;DHT22;3747;48.628;9.058;2023-05-21T01:37:11;12.60;99.90
7411;DHT22;3747;48.628;9.058;2023-05-21T01:39:43;12.60;99.90
7411;DHT22;3747;48.628;9.058;2023-05-21T01:42:14;12.60;99.90
7411;DHT22;3747;48.628;9.058;2023-05-21T01:44:42;12.50;99.90
7411;DHT22;3747;48.628;9.058;2023-05-21T01:47:10;12.50;99.90
7411;DHT22;3747;48.628;9.058;2023-05-21T01:49:38;12.50;99.90
7411;DHT22;3747;48.628;9.058;2023-05-21T01:52:05;12.60;99.90
7411;DHT22;3747;48.628;9.058;2023-05-21T01:54:32;12.50;99.90
7411;DHT22;3747;48.628;9.058;2023-05-21T01:57:00;12.40;99.90
7411;DHT22;3747;48.628;9.058;2023-05-21T01:59:28;12.40;99.90
7411;DHT22;3747;48.628;9.058;2023-05-21T02:01:55;12.40;99.90
7411;DHT22;3747;48.628;9.058;2023-05-21T02:04:22;12.40;99.90
7411;DHT22;3747;48.628;9.058;2023-05-21T02:06:48;12.40;99.90
7411;DHT22;3747;48.628;9.058;2023-05-21T02:09:15;12.30;99.90
7411;DHT22;3747;48.628;9.058;2023-05-21T02:11:42;12.30;99.90
7411;DHT22;3747;48.628;9.058;2023-05-21T02:14:12;12.20;99.90
7411;DHT22;3747;48.628;9.058;2023-05-21T02:16:39;12.20;99.90
7411;DHT22;3747;48.628;9.058;2023-05-21T02:19:06;12.20;99.90
7411;DHT22;3747;48.628;9.058;2023-05-21T02:21:34;12.20;99.90
7411;DHT22;3747;48.628;9.058;2023-05-21T02:24:01;12.10;99.90
7411;DHT22;3747;48.628;9.058;2023-05-21T02:26:28;12.10;99.90
7411;DHT22;3747;48.628;9.058;2023-05-21T02:28:54;12.10;99.90
7411;DHT22;3747;48.628;9.058;2023-05-21T02:31:22;12.10;99.90
7411;DHT22;3747;48.628;9.058;2023-05-21T02:33:49;12.10;99.90
7411;DHT22;3747;48.628;9.058;2023-05-21T02:36:16;12.10;99.90
7411;DHT22;3747;48.628;9.058;2023-05-21T02:38:43;12.00;99.90
7411;DHT22;3747;48.628;9.058;2023-05-21T02:41:11;11.90;99.90
7411;DHT22;3747;48.628;9.058;2023-05-21T02:43:38;12.10;99.90
7411;DHT22;3747;48.628;9.058;2023-05-21T02:46:05;12.00;99.90
7411;DHT22;3747;48.628;9.058;2023-05-21T02:48:33;12.00;99.90
7411;DHT22;3747;48.628;9.058;2023-05-21T02:51:00;11.90;99.90
7411;DHT22;3747;48.628;9.058;2023-05-21T02:53:26;11.80;99.90
7411;DHT22;3747;48.628;9.058;2023-05-21T02:55:53;11.80;99.90
7411;DHT22;3747;48.628;9.058;2023-05-21T02:58:20;11.80;99.90
7411;DHT22;3747;48.628;9.058;2023-05-21T03:00:50;11.80;99.90
7411;DHT22;3747;48.628;9.058;2023-05-21T03:03:16;11.70;99.90
7411;DHT22;3747;48.628;9.058;2023-05-21T03:05:44;11.70;99.90
7411;DHT22;3747;48.628;9.058;2023-05-21T03:08:12;11.70;99.90
7411;DHT22;3747;48.628;9.058;2023-05-21T03:10:39;11.70;99.90
7411;DHT22;3747;48.628;9.058;2023-05-21T03:13:05;11.70;99.90
7411;DHT22;3747;48.628;9.058;2023-05-21T03:15:32;11.70;99.90
7411;DHT22;3747;48.628;9.058;2023-05-21T03:17:59;11.60;99.90
7411;DHT22;3747;48.628;9.058;2023-05-21T03:20:26;11.60;99.90
7411;DHT22;3747;48.628;9.058;2023-05-21T03:22:54;11.60;99.90
7411;DHT22;3747;48.628;9.058;2023-05-21T03:25:21;11.60;99.90
7411;DHT22;3747;48.628;9.058;2023-05-21T03:27:49;11.50;99.90
7411;DHT22;3747;48.628;9.058;2023-05-21T03:30:16;11.40;99.90
7411;DHT22;3747;48.628;9.058;2023-05-21T03:32:43;11.40;99.90
7411;DHT22;3747;48.628;9.058;2023-05-21T03:35:10;11.50;99.90
7411;DHT22;3747;48.628;9.058;2023-05-21T03:37:37;11.50;99.90
7411;DHT22;3747;48.628;9.058;2023-05-21T03:40:06;11.40;99.90
7411;DHT22;3747;48.628;9.058;2023-05-21T03:42:33;11.30;99.90
7411;DHT22;3747;48.628;9.058;2023-05-21T03:45:00;11.30;99.90
7411;DHT22;3747;48.628;9.058;2023-05-21T03:47:26;11.40;99.90
7411;DHT22;3747;48.628;9.058;2023-05-21T03:49:53;11.40;99.90
7411;DHT22;3747;48.628;9.058;2023-05-21T03:52:20;11.40;99.90
7411;DHT22;3747;48.628;9.058;2023-05-21T03:54:47;11.50;99.90
7411;DHT22;3747;48.628;9.058;2023-05-21T03:57:15;11.40;99.90
7411;DHT22;3747;48.628;9.058;2023-05-21T03:59:42;11.40;99.90
7411;DHT22;3747;48.628;9.058;2023-05-21T04:02:08;11.50;99.90
7411;DHT22;3747;48.628;9.058;2023-05-21T04:04:35;11.50;99.90
7411;DHT22;3747;48.628;9.058;2023-05-21T04:07:02;11.50;99.90
7411;DHT22;3747;48.628;9.058;2023-05-21T04:09:29;11.50;99.90
7411;DHT22;3747;48.628;9.058;2023-05-21T04:11:56;11.60;99.90
7411;DHT22;3747;48.628;9.058;2023-05-21T04:14:24;11.60;99.90
7411;DHT22;3747;48.628;9.058;2023-05-21T04:16:50;11.60;99.90
7411;DHT22;3747;48.628;9.058;2023-05-21T04:19:17;11.60;99.90
7411;DHT22;3747;48.628;9.058;2023-05-21T04:21:44;11.60;99.90
7411;DHT22;3747;48.628;9.058;2023-05-21T04:24:10;11.60;99.90
7411;DHT22;3747;48.628;9.058;2023-05-21T04:26:37;11.70;99.90
7411;DHT22;3747;48.628;9.058;2023-05-21T04:29:07;11.70;99.90
7411;DHT22;3747;48.628;9.058;2023-05-21T04:31:36;11.80;99.90
7411;DHT22;3747;48.628;9.058;2023-05-21T04:34:02;11.80;99.90
7411;DHT22;3747;48.628;9.058;2023-05-21T04:36:29;11.80;99.90
7411;DHT22;3747;48.628;9.058;2023-05-21T04:38:56;11.80;99.90
7411;DHT22;3747;48.628;9.058;2023-05-21T04:41:22;11.90;99.90
7411;DHT22;3747;48.628;9.058;2023-05-21T04:43:49;12.00;99.90
7411;DHT22;3747;48.628;9.058;2023-05-21T04:46:19;12.00;99.90
7411;DHT22;3747;48.628;9.058;2023-05-21T04:48:51;12.00;99.90
7411;DHT22;3747;48.628;9.058;2023-05-21T04:51:19;12.10;99.90
7411;DHT22;3747;48.628;9.058;2023-05-21T04:53:46;12.10;99.90
7411;DHT22;3747;48.628;9.058;2023-05-21T04:56:14;12.20;99.90
7411;DHT22;3747;48.628;9.058;2023-05-21T04:58:41;12.10;99.90
7411;DHT22;3747;48.628;9.058;2023-05-21T05:01:08;12.10;99.90
7411;DHT22;3747;48.628;9.058;2023-05-21T05:03:35;12.20;99.90
7411;DHT22;3747;48.628;9.058;2023-05-21T05:06:03;12.30;99.90
7411;DHT22;3747;48.628;9.058;2023-05-21T05:08:30;12.40;99.90
7411;DHT22;3747;48.628;9.058;2023-05-21T05:10:56;12.50;99.90
7411;DHT22;3747;48.628;9.058;2023-05-21T05:13:23;12.50;99.90
7411;DHT22;3747;48.628;9.058;2023-05-21T05:15:50;12.60;99.90
7411;DHT22;3747;48.628;9.058;2023-05-21T05:18:18;12.70;99.90
7411;DHT22;3747;48.628;9.058;2023-05-21T05:20:45;12.80;99.90
7411;DHT22;3747;48.628;9.058;2023-05-21T05:23:13;12.80;99.90
7411;DHT22;3747;48.628;9.058;2023-05-21T05:25:40;12.80;99.90
7411;DHT22;3747;48.628;9.058;2023-05-21T05:28:07;12.90;99.90
7411;DHT22;3747;48.628;9.058;2023-05-21T05:30:35;12.80;99.90
7411;DHT22;3747;48.628;9.058;2023-05-21T05:33:01;12.80;99.90
7411;DHT22;3747;48.628;9.058;2023-05-21T05:35:28;13.00;99.90
7411;DHT22;3747;48.628;9.058;2023-05-21T05:37:55;13.20;99.90
7411;DHT22;3747;48.628;9.058;2023-05-21T05:40:23;13.40;99.90
7411;DHT22;3747;48.628;9.058;2023-05-21T05:42:49;13.40;99.90
7411;DHT22;3747;48.628;9.058;2023-05-21T05:45:17;13.50;99.90
7411;DHT22;3747;48.628;9.058;2023-05-21T05:47:44;13.60;99.90
7411;DHT22;3747;48.628;9.058;2023-05-21T05:50:10;13.50;99.90
7411;DHT22;3747;48.628;9.058;2023-05-21T05:52:37;13.50;99.90
7411;DHT22;3747;48.628;9.058;2023-05-21T05:55:05;13.50;99.90
7411;DHT22;3747;48.628;9.058;2023-05-21T05:57:34;13.70;99.90
7411;DHT22;3747;48.628;9.058;2023-05-21T06:00:01;13.80;99.90
7411;DHT22;3747;48.628;9.058;2023-05-21T06:02:29;14.00;99.90
7411;DHT22;3747;48.628;9.058;2023-05-21T06:04:55;13.90;99.90
7411;DHT22;3747;48.628;9.058;2023-05-21T06:07:22;13.90;99.90
7411;DHT22;3747;48.628;9.058;2023-05-21T06:09:49;14.00;99.90
7411;DHT22;3747;48.628;9.058;2023-05-21T06:12:16;14.10;99.90
7411;DHT22;3747;48.628;9.058;2023-05-21T06:14:44;14.00;99.90
7411;DHT22;3747;48.628;9.058;2023-05-21T06:17:13;14.40;99.90
7411;DHT22;3747;48.628;9.058;2023-05-21T06:19:40;14.30;99.90
7411;DHT22;3747;48.628;9.058;2023-05-21T06:22:07;14.40;99.90
7411;DHT22;3747;48.628;9.058;2023-05-21T06:24:33;14.60;99.90
7411;DHT22;3747;48.628;9.058;2023-05-21T06:27:00;14.80;99.90
7411;DHT22;3747;48.628;9.058;2023-05-21T06:29:28;14.90;99.90
7411;DHT22;3747;48.628;9.058;2023-05-21T06:31:56;15.00;99.90
7411;DHT22;3747;48.628;9.058;2023-05-21T06:34:23;14.90;99.90
7411;DHT22;3747;48.628;9.058;2023-05-21T06:36:50;14.80;99.90
7411;DHT22;3747;48.628;9.058;2023-05-21T06:39:16;14.90;99.90
7411;DHT22;3747;48.628;9.058;2023-05-21T06:41:43;15.00;99.90
7411;DHT22;3747;48.628;9.058;2023-05-21T06:44:10;15.10;99.90
7411;DHT22;3747;48.628;9.058;2023-05-21T06:46:37;15.50;99.90
7411;DHT22;3747;48.628;9.058;2023-05-21T06:49:05;15.50;99.90
7411;DHT22;3747;48.628;9.058;2023-05-21T06:51:32;15.70;99.90
7411;DHT22;3747;48.628;9.058;2023-05-21T06:53:58;15.50;99.90
7411;DHT22;3747;48.628;9.058;2023-05-21T06:56:25;15.70;99.90
7411;DHT22;3747;48.628;9.058;2023-05-21T06:58:52;15.90;99.90
7411;DHT22;3747;48.628;9.058;2023-05-21T07:01:19;16.20;99.90
7411;DHT22;3747;48.628;9.058;2023-05-21T07:03:46;16.50;99.90
7411;DHT22;3747;48.628;9.058;2023-05-21T07:06:15;16.60;99.90
7411;DHT22;3747;48.628;9.058;2023-05-21T07:08:42;17.10;99.90
7411;DHT22;3747;48.628;9.058;2023-05-21T07:11:08;16.90;99.90
7411;DHT22;3747;48.628;9.058;2023-05-21T07:13:35;17.50;99.90
7411;DHT22;3747;48.628;9.058;2023-05-21T07:16:02;18.50;99.90
7411;DHT22;3747;48.628;9.058;2023-05-21T07:18:29;19.60;99.90
7411;DHT22;3747;48.628;9.058;2023-05-21T07:20:56;20.40;99.90
7411;DHT22;3747;48.628;9.058;2023-05-21T07:23:24;20.90;99.90
7411;DHT22;3747;48.628;9.058;2023-05-21T07:25:51;21.70;99.90
7411;DHT22;3747;48.628;9.058;2023-05-21T07:28:18;21.50;99.90
7411;DHT22;3747;48.628;9.058;2023-05-21T07:30:45;21.40;99.90
7411;DHT22;3747;48.628;9.058;2023-05-21T07:33:12;20.80;99.90
7411;DHT22;3747;48.628;9.058;2023-05-21T07:35:39;19.80;99.90
7411;DHT22;3747;48.628;9.058;2023-05-21T07:38:06;20.10;99.90
7411;DHT22;3747;48.628;9.058;2023-05-21T07:40:34;19.80;99.90
7411;DHT22;3747;48.628;9.058;2023-05-21T07:43:00;20.50;99.90
7411;DHT22;3747;48.628;9.058;2023-05-21T07:45:27;21.00;99.90
7411;DHT22;3747;48.628;9.058;2023-05-21T07:47:54;21.10;99.90
7411;DHT22;3747;48.628;9.058;2023-05-21T07:50:20;21.30;99.90
7411;DHT22;3747;48.628;9.058;2023-05-21T07:52:47;21.90;99.90
7411;DHT22;3747;48.628;9.058;2023-05-21T07:55:14;22.40;99.90
7411;DHT22;3747;48.628;9.058;2023-05-21T07:57:42;22.90;99.90
7411;DHT22;3747;48.628;9.058;2023-05-21T08:00:10;22.90;99.90
7411;DHT22;3747;48.628;9.058;2023-05-21T08:02:39;23.00;99.90
7411;DHT22;3747;48.628;9.058;2023-05-21T08:05:06;23.10;99.90
7411;DHT22;3747;48.628;9.058;2023-05-21T08:07:34;23.40;99.90
7411;DHT22;3747;48.628;9.058;2023-05-21T08:10:02;23.30;99.90
7411;DHT22;3747;48.628;9.058;2023-05-21T08:12:28;23.10;99.90
7411;DHT22;3747;48.628;9.058;2023-05-21T08:14:57;23.60;99.90
7411;DHT22;3747;48.628;9.058;2023-05-21T08:17:24;23.70;99.90
7411;DHT22;3747;48.628;9.058;2023-05-21T08:19:52;23.80;99.90
7411;DHT22;3747;48.628;9.058;2023-05-21T08:22:19;22.80;99.90
7411;DHT22;3747;48.628;9.058;2023-05-21T08:24:46;21.90;99.90
7411;DHT22;3747;48.628;9.058;2023-05-21T08:27:13;22.40;99.90
7411;DHT22;3747;48.628;9.058;2023-05-21T08:29:40;22.90;99.90
7411;DHT22;3747;48.628;9.058;2023-05-21T08:32:11;23.30;99.90
7411;DHT22;3747;48.628;9.058;2023-05-21T08:34:38;23.80;99.90
7411;DHT22;3747;48.628;9.058;2023-05-21T08:37:04;24.80;99.90
7411;DHT22;3747;48.628;9.058;2023-05-21T08:39:31;25.50;99.90
7411;DHT22;3747;48.628;9.058;2023-05-21T08:42:07;25.90;99.90
7411;DHT22;3747;48.628;9.058;2023-05-21T08:44:37;26.00;99.90
7411;DHT22;3747;48.628;9.058;2023-05-21T08:47:11;26.00;99.90
7411;DHT22;3747;48.628;9.058;2023-05-21T08:49:39;25.20;99.90
7411;DHT22;3747;48.628;9.058;2023-05-21T08:52:07;25.80;99.90
7411;DHT22;3747;48.628;9.058;2023-05-21T08:54:35;25.60;99.90
7411;DHT22;3747;48.628;9.058;2023-05-21T08:57:04;25.30;99.90
7411;DHT22;3747;48.628;9.058;2023-05-21T08:59:31;25.90;99.90
7411;DHT22;3747;48.628;9.058;2023-05-21T09:01:58;26.00;99.90
7411;DHT22;3747;48.628;9.058;2023-05-21T09:04:26;26.50;99.90
7411;DHT22;3747;48.628;9.058;2023-05-21T09:06:53;26.50;99.90
7411;DHT22;3747;48.628;9.058;2023-05-21T09:09:26;25.30;99.90
7411;DHT22;3747;48.628;9.058;2023-05-21T09:11:54;24.40;99.90
7411;DHT22;3747;48.628;9.058;2023-05-21T09:14:22;25.30;99.90
7411;DHT22;3747;48.628;9.058;2023-05-21T09:16:49;25.40;99.90
7411;DHT22;3747;48.628;9.058;2023-05-21T09:19:15;25.40;99.90
7411;DHT22;3747;48.628;9.058;2023-05-21T09:21:43;25.70;99.90
7411;DHT22;3747;48.628;9.058;2023-05-21T09:24:10;26.80;99.90
7411;DHT22;3747;48.628;9.058;2023-05-21T09:26:37;27.20;99.90
7411;DHT22;3747;48.628;9.058;2023-05-21T09:29:07;26.70;99.90
7411;DHT22;3747;48.628;9.058;2023-05-21T09:31:34;26.70;99.90
7411;DHT22;3747;48.628;9.058;2023-05-21T09:34:01;27.20;99.90
7411;DHT22;3747;48.628;9.058;2023-05-21T09:36:27;26.90;99.90
7411;DHT22;3747;48.628;9.058;2023-05-21T09:38:56;26.10;99.90
7411;DHT22;3747;48.628;9.058;2023-05-21T09:41:31;25.70;99.90
7411;DHT22;3747;48.628;9.058;2023-05-21T09:43:58;25.50;99.90
7411;DHT22;3747;48.628;9.058;2023-05-21T09:46:40;26.60;99.90
7411;DHT22;3747;48.628;9.058;2023-05-21T09:49:07;27.20;99.90
7411;DHT22;3747;48.628;9.058;2023-05-21T09:51:47;27.70;99.90
7411;DHT22;3747;48.628;9.058;2023-05-21T09:54:15;27.80;99.90
7411;DHT22;3747;48.628;9.058;2023-05-21T09:56:41;26.90;99.90
7411;DHT22;3747;48.628;9.058;2023-05-21T09:59:16;27.20;99.90
7411;DHT22;3747;48.628;9.058;2023-05-21T10:01:42;27.70;99.90
7411;DHT22;3747;48.628;9.058;2023-05-21T10:04:10;28.10;99.90
7411;DHT22;3747;48.628;9.058;2023-05-21T10:06:41;27.50;99.90
7411;DHT22;3747;48.628;9.058;2023-05-21T10:09:09;27.80;99.90
7411;DHT22;3747;48.628;9.058;2023-05-21T10:11:38;27.90;99.90
7411;DHT22;3747;48.628;9.058;2023-05-21T10:14:06;28.40;99.90
7411;DHT22;3747;48.628;9.058;2023-05-21T10:16:35;28.60;99.90
7411;DHT22;3747;48.628;9.058;2023-05-21T10:19:02;28.60;99.90
7411;DHT22;3747;48.628;9.058;2023-05-21T10:21:31;28.50;99.90
7411;DHT22;3747;48.628;9.058;2023-05-21T10:24:06;28.30;99.90
7411;DHT22;3747;48.628;9.058;2023-05-21T10:26:34;27.90;99.90
7411;DHT22;3747;48.628;9.058;2023-05-21T10:29:03;28.10;99.90
7411;DHT22;3747;48.628;9.058;2023-05-21T10:31:30;27.90;99.90
7411;DHT22;3747;48.628;9.058;2023-05-21T10:33:58;27.60;99.90
7411;DHT22;3747;48.628;9.058;2023-05-21T10:36:32;28.20;99.90
7411;DHT22;3747;48.628;9.058;2023-05-21T10:39:01;27.70;99.90
7411;DHT22;3747;48.628;9.058;2023-05-21T10:41:33;27.60;99.90
7411;DHT22;3747;48.628;9.058;2023-05-21T10:44:09;27.90;99.90
7411;DHT22;3747;48.628;9.058;2023-05-21T10:47:06;27.60;99.90
7411;DHT22;3747;48.628;9.058;2023-05-21T10:50:08;27.90;99.90
7411;DHT22;3747;48.628;9.058;2023-05-21T10:52:51;28.00;99.90
7411;DHT22;3747;48.628;9.058;2023-05-21T10:55:32;28.00;99.90
7411;DHT22;3747;48.628;9.058;2023-05-21T11:01:06;29.20;99.90
7411;DHT22;3747;48.628;9.058;2023-05-21T11:03:47;29.20;99.90
7411;DHT22;3747;48.628;9.058;2023-05-21T11:06:21;28.80;99.90
7411;DHT22;3747;48.628;9.058;2023-05-21T11:08:49;28.90;99.90
7411;DHT22;3747;48.628;9.058;2023-05-21T11:11:38;28.80;99.90
7411;DHT22;3747;48.628;9.058;2023-05-21T11:14:28;28.60;99.90
7411;DHT22;3747;48.628;9.058;2023-05-21T11:16:58;28.80;99.90
7411;DHT22;3747;48.628;9.058;2023-05-21T11:19:34;28.90;99.90
7411;DHT22;3747;48.628;9.058;2023-05-21T11:22:04;28.60;99.90
7411;DHT22;3747;48.628;9.058;2023-05-21T11:24:40;28.20;99.90
7411;DHT22;3747;48.628;9.058;2023-05-21T11:27:08;27.50;99.90
7411;DHT22;3747;48.628;9.058;2023-05-21T11:29:44;27.10;99.90
7411;DHT22;3747;48.628;9.058;2023-05-21T11:32:14;28.10;99.90
7411;DHT22;3747;48.628;9.058;2023-05-21T11:34:43;28.60;99.90
7411;DHT22;3747;48.628;9.058;2023-05-21T11:37:27;29.20;99.90
7411;DHT22;3747;48.628;9.058;2023-05-21T11:39:56;29.10;99.90
7411;DHT22;3747;48.628;9.058;2023-05-21T11:42:51;29.00;99.90
7411;DHT22;3747;48.628;9.058;2023-05-21T11:45:19;28.90;99.90
7411;DHT22;3747;48.628;9.058;2023-05-21T11:47:48;28.70;99.90
7411;DHT22;3747;48.628;9.058;2023-05-21T11:50:16;28.50;99.90
7411;DHT22;3747;48.628;9.058;2023-05-21T11:52:44;28.90;99.90
7411;DHT22;3747;48.628;9.058;2023-05-21T11:55:11;28.80;99.90
7411;DHT22;3747;48.628;9.058;2023-05-21T11:57:41;28.20;99.90
7411;DHT22;3747;48.628;9.058;2023-05-21T12:00:13;28.30;99.90
7411;DHT22;3747;48.628;9.058;2023-05-21T12:02:45;28.50;99.90
7411;DHT22;3747;48.628;9.058;2023-05-21T12:05:13;28.50;99.90
7411;DHT22;3747;48.628;9.058;2023-05-21T12:07:40;28.20;99.90
7411;DHT22;3747;48.628;9.058;2023-05-21T12:10:07;28.20;99.90
7411;DHT22;3747;48.628;9.058;2023-05-21T12:12:34;28.30;99.90
7411;DHT22;3747;48.628;9.058;2023-05-21T12:15:02;28.10;99.90
7411;DHT22;3747;48.628;9.058;2023-05-21T12:17:30;27.90;99.90
7411;DHT22;3747;48.628;9.058;2023-05-21T12:19:57;28.00;99.90
7411;DHT22;3747;48.628;9.058;2023-05-21T12:22:27;28.70;99.90
7411;DHT22;3747;48.628;9.058;2023-05-21T12:24:54;28.20;99.90
7411;DHT22;3747;48.628;9.058;2023-05-21T12:27:22;28.70;99.90
7411;DHT22;3747;48.628;9.058;2023-05-21T12:29:50;28.60;99.90
7411;DHT22;3747;48.628;9.058;2023-05-21T12:32:18;29.10;99.90
7411;DHT22;3747;48.628;9.058;2023-05-21T12:34:46;28.50;99.90
7411;DHT22;3747;48.628;9.058;2023-05-21T12:37:16;28.40;99.90
7411;DHT22;3747;48.628;9.058;2023-05-21T12:39:46;28.50;99.90
7411;DHT22;3747;48.628;9.058;2023-05-21T12:42:13;28.10;99.90
7411;DHT22;3747;48.628;9.058;2023-05-21T12:44:43;28.00;99.90
7411;DHT22;3747;48.628;9.058;2023-05-21T12:47:10;27.70;99.90
7411;DHT22;3747;48.628;9.058;2023-05-21T12:49:40;27.70;99.90
7411;DHT22;3747;48.628;9.058;2023-05-21T12:52:08;27.30;99.90
7411;DHT22;3747;48.628;9.058;2023-05-21T12:54:37;27.10;99.90
7411;DHT22;3747;48.628;9.058;2023-05-21T12:57:09;26.60;99.90
7411;DHT22;3747;48.628;9.058;2023-05-21T12:59:50;26.50;99.90
7411;DHT22;3747;48.628;9.058;2023-05-21T13:02:21;27.20;99.90
7411;DHT22;3747;48.628;9.058;2023-05-21T13:04:53;27.30;99.90
7411;DHT22;3747;48.628;9.058;2023-05-21T13:07:20;27.10;99.90
7411;DHT22;3747;48.628;9.058;2023-05-21T13:09:47;26.70;99.90
7411;DHT22;3747;48.628;9.058;2023-05-21T13:12:19;26.60;99.90
7411;DHT22;3747;48.628;9.058;2023-05-21T13:14:46;26.30;99.90
7411;DHT22;3747;48.628;9.058;2023-05-21T13:17:14;26.10;99.90
7411;DHT22;3747;48.628;9.058;2023-05-21T13:19:40;26.00;99.90
7411;DHT22;3747;48.628;9.058;2023-05-21T13:22:07;26.10;99.90
7411;DHT22;3747;48.628;9.058;2023-05-21T13:24:34;26.20;99.90
7411;DHT22;3747;48.628;9.058;2023-05-21T13:27:02;26.00;99.90
7411;DHT22;3747;48.628;9.058;2023-05-21T13:29:30;25.90;99.90
7411;DHT22;3747;48.628;9.058;2023-05-21T13:31:57;25.80;99.90
7411;DHT22;3747;48.628;9.058;2023-05-21T13:34:33;25.80;99.90
7411;DHT22;3747;48.628;9.058;2023-05-21T13:36:59;25.70;99.90
7411;DHT22;3747;48.628;9.058;2023-05-21T13:39:26;25.90;99.90
7411;DHT22;3747;48.628;9.058;2023-05-21T13:41:53;25.80;99.90
7411;DHT22;3747;48.628;9.058;2023-05-21T13:44:20;25.70;99.90
7411;DHT22;3747;48.628;9.058;2023-05-21T13:46:48;25.80;99.90
7411;DHT22;3747;48.628;9.058;2023-05-21T13:49:15;25.90;99.90
7411;DHT22;3747;48.628;9.058;2023-05-21T13:51:42;26.10;99.90
7411;DHT22;3747;48.628;9.058;2023-05-21T13:54:08;26.10;99.90
7411;DHT22;3747;48.628;9.058;2023-05-21T13:56:35;25.90;99.90
7411;DHT22;3747;48.628;9.058;2023-05-21T13:59:02;25.40;99.90
7411;DHT22;3747;48.628;9.058;2023-05-21T14:01:29;25.20;99.90
7411;DHT22;3747;48.628;9.058;2023-05-21T14:03:57;25.30;99.90
7411;DHT22;3747;48.628;9.058;2023-05-21T14:06:28;25.50;99.90
7411;DHT22;3747;48.628;9.058;2023-05-21T14:08:55;25.70;99.90
7411;DHT22;3747;48.628;9.058;2023-05-21T14:11:22;25.80;99.90
7411;DHT22;3747;48.628;9.058;2023-05-21T14:13:48;25.60;99.90
7411;DHT22;3747;48.628;9.058;2023-05-21T14:16:15;26.00;99.90
7411;DHT22;3747;48.628;9.058;2023-05-21T14:18:42;26.00;99.90
7411;DHT22;3747;48.628;9.058;2023-05-21T14:21:11;26.00;99.90
7411;DHT22;3747;48.628;9.058;2023-05-21T14:23:40;26.00;99.90
7411;DHT22;3747;48.628;9.058;2023-05-21T14:26:06;25.90;99.90
7411;DHT22;3747;48.628;9.058;2023-05-21T14:28:33;25.90;99.90
7411;DHT22;3747;48.628;9.058;2023-05-21T14:31:00;25.70;99.90
7411;DHT22;3747;48.628;9.058;2023-05-21T14:33:26;25.50;99.90
7411;DHT22;3747;48.628;9.058;2023-05-21T14:35:53;25.20;99.90
7411;DHT22;3747;48.628;9.058;2023-05-21T14:38:21;25.20;99.90
7411;DHT22;3747;48.628;9.058;2023-05-21T14:40:59;25.10;99.90
7411;DHT22;3747;48.628;9.058;2023-05-21T14:43:25;25.70;99.90
7411;DHT22;3747;48.628;9.058;2023-05-21T14:45:52;26.30;99.90
7411;DHT22;3747;48.628;9.058;2023-05-21T14:48:19;27.20;99.90
7411;DHT22;3747;48.628;9.058;2023-05-21T14:50:52;28.00;98.50
7411;DHT22;3747;48.628;9.058;2023-05-21T14:53:21;28.50;99.90
7411;DHT22;3747;48.628;9.058;2023-05-21T14:55:47;29.70;99.00
7411;DHT22;3747;48.628;9.058;2023-05-21T14:58:14;29.60;98.40
7411;DHT22;3747;48.628;9.058;2023-05-21T15:00:41;28.90;98.40
7411;DHT22;3747;48.628;9.058;2023-05-21T15:03:08;29.20;97.50
7411;DHT22;3747;48.628;9.058;2023-05-21T15:05:34;29.30;95.90
7411;DHT22;3747;48.628;9.058;2023-05-21T15:08:01;29.50;97.10
7411;DHT22;3747;48.628;9.058;2023-05-21T15:10:31;29.10;97.30
7411;DHT22;3747;48.628;9.058;2023-05-21T15:12:58;28.80;96.50
7411;DHT22;3747;48.628;9.058;2023-05-21T15:15:25;28.20;97.30
7411;DHT22;3747;48.628;9.058;2023-05-21T15:17:51;28.10;97.60
7411;DHT22;3747;48.628;9.058;2023-05-21T15:20:18;27.80;97.70
7411;DHT22;3747;48.628;9.058;2023-05-21T15:22:45;28.10;96.80
7411;DHT22;3747;48.628;9.058;2023-05-21T15:25:13;28.40;95.90
7411;DHT22;3747;48.628;9.058;2023-05-21T15:27:44;29.10;96.10
7411;DHT22;3747;48.628;9.058;2023-05-21T15:30:11;29.40;96.10
7411;DHT22;3747;48.628;9.058;2023-05-21T15:32:38;29.70;95.70
7411;DHT22;3747;48.628;9.058;2023-05-21T15:35:05;29.70;97.20
7411;DHT22;3747;48.628;9.058;2023-05-21T15:37:32;28.80;95.80
7411;DHT22;3747;48.628;9.058;2023-05-21T15:39:58;29.50;95.30
7411;DHT22;3747;48.628;9.058;2023-05-21T15:42:25;29.90;95.20
7411;DHT22;3747;48.628;9.058;2023-05-21T15:44:56;29.60;95.80
7411;DHT22;3747;48.628;9.058;2023-05-21T15:47:23;30.40;93.50
7411;DHT22;3747;48.628;9.058;2023-05-21T15:49:50;30.30;92.50
7411;DHT22;3747;48.628;9.058;2023-05-21T15:52:17;30.50;92.50
7411;DHT22;3747;48.628;9.058;2023-05-21T15:54:44;30.50;92.00
7411;DHT22;3747;48.628;9.058;2023-05-21T15:57:11;30.80;91.60
7411;DHT22;3747;48.628;9.058;2023-05-21T15:59:38;31.00;91.10
7411;DHT22;3747;48.628;9.058;2023-05-21T16:02:06;30.80;90.10
7411;DHT22;3747;48.628;9.058;2023-05-21T16:04:33;30.20;89.50
7411;DHT22;3747;48.628;9.058;2023-05-21T16:06:59;30.10;90.30
7411;DHT22;3747;48.628;9.058;2023-05-21T16:09:26;29.80;89.20
7411;DHT22;3747;48.628;9.058;2023-05-21T16:11:53;29.80;89.90